sensor_id;sensor_type;location;lat;lon;timestamp;pressure;altitude;pressure_sealevel;temperature;humidity
4814;BME280;15375;48.540;9.268;2023-11-19T00:01:48;97286.06;;;8.10;100.00
4814;BME280;15375;48.540;9.268;2023-11-19T00:04:14;97315.38;;;8.26;100.00
4814;BME280;15375;48.540;9.268;2023-11-19T00:06:39;97299.28;;;8.05;100.00
4814;BME280;15375;48.540;9.268;2023-11-19T00:09:05;97308.59;;;8.07;100.00
4814;BME280;15375;48.540;9.268;2023-11-19T00:11:30;97316.31;;;8.09;100.00
4814;BME280;15375;48.540;9.268;2023-11-19T00:13:56;97302.81;;;7.98;100.00
4814;BME280;15375;48.540;9.268;2023-11-19T00:16:21;97290.06;;;7.95;100.00
4814;BME280;15375;48.540;9.268;2023-11-19T00:18:46;97285.00;;;7.97;100.00
4814;BME280;15375;48.540;9.268;2023-11-19T00:21:12;97284.25;;;7.93;100.00
4814;BME280;15375;48.540;9.268;2023-11-19T00:23:37;97297.38;;;8.02;100.00
4814;BME280;15375;48.540;9.268;2023-11-19T00:26:03;97291.50;;;8.07;100.00
4814;BME280;15375;48.540;9.268;2023-11-19T00:28:31;97255.63;;;7.85;100.00
4814;BME280;15375;48.540;9.268;2023-11-19T00:30:56;97264.53;;;7.86;100.00
4814;BME280;15375;48.540;9.268;2023-11-19T00:33:22;97267.94;;;7.93;100.00
4814;BME280;15375;48.540;9.268;2023-11-19T00:35:47;97253.72;;;7.82;100.00
4814;BME280;15375;48.540;9.268;2023-11-19T00:38:13;97289.56;;;8.07;100.00
4814;BME280;15375;48.540;9.268;2023-11-19T00:40:39;97293.78;;;8.15;100.00
4814;BME280;15375;48.540;9.268;2023-11-19T00:43:06;97289.50;;;8.14;100.00
4814;BME280;15375;48.540;9.268;2023-11-19T00:45:32;97277.47;;;8.15;100.00
4814;BME280;15375;48.540;9.268;2023-11-19T00:47:57;97287.47;;;8.25;100.00
4814;BME280;15375;48.540;9.268;2023-11-19T00:50:24;97271.91;;;8.26;100.00
4814;BME280;15375;48.540;9.268;2023-11-19T00:52:50;97274.13;;;8.42;100.00
4814;BME280;15375;48.540;9.268;2023-11-19T00:55:16;97275.69;;;8.43;100.00
4814;BME280;15375;48.540;9.268;2023-11-19T00:57:42;97263.63;;;8.44;100.00
4814;BME280;15375;48.540;9.268;2023-11-19T01:00:08;97255.09;;;8.42;100.00
4814;BME280;15375;48.540;9.268;2023-11-19T01:02:52;97260.44;;;8.49;100.00
4814;BME280;15375;48.540;9.268;2023-11-19T01:05:17;97246.88;;;8.49;100.00
4814;BME280;15375;48.540;9.268;2023-11-19T01:07:46;97237.56;;;8.46;100.00
4814;BME280;15375;48.540;9.268;2023-11-19T01:10:12;97243.75;;;8.50;100.00
4814;BME280;15375;48.540;9.268;2023-11-19T01:12:37;97218.25;;;8.41;100.00
4814;BME280;15375;48.540;9.268;2023-11-19T01:15:04;97266.09;;;8.68;100.00
4814;BME280;15375;48.540;9.268;2023-11-19T01:17:30;97258.41;;;8.60;100.00
4814;BME280;15375;48.540;9.268;2023-11-19T01:19:57;97232.13;;;8.50;100.00
4814;BME280;15375;48.540;9.268;2023-11-19T01:22:22;97215.91;;;8.39;100.00
4814;BME280;15375;48.540;9.268;2023-11-19T01:24:48;97229.81;;;8.48;100.00
4814;BME280;15375;48.540;9.268;2023-11-19T01:27:13;97242.09;;;8.60;100.00
4814;BME280;15375;48.540;9.268;2023-11-19T01:29:39;97239.69;;;8.65;100.00
4814;BME280;15375;48.540;9.268;2023-11-19T01:32:05;97232.25;;;8.69;100.00
4814;BME280;15375;48.540;9.268;2023-11-19T01:34:30;97248.00;;;8.85;100.00
4814;BME280;15375;48.540;9.268;2023-11-19T01:36:55;97219.00;;;8.75;100.00
4814;BME280;15375;48.540;9.268;2023-11-19T01:39:21;97221.25;;;8.80;100.00
4814;BME280;15375;48.540;9.268;2023-11-19T01:41:47;97215.38;;;8.85;100.00
4814;BME280;15375;48.540;9.268;2023-11-19T01:44:12;97148.22;;;8.52;100.00
4814;BME280;15375;48.540;9.268;2023-11-19T01:46:38;97204.84;;;8.87;100.00
4814;BME280;15375;48.540;9.268;2023-11-19T01:49:05;97181.63;;;8.79;100.00
4814;BME280;15375;48.540;9.268;2023-11-19T01:51:31;97197.88;;;8.86;100.00
4814;BME280;15375;48.540;9.268;2023-11-19T01:53:57;97190.84;;;8.88;100.00
4814;BME280;15375;48.540;9.268;2023-11-19T01:56:23;97207.31;;;9.05;100.00
4814;BME280;15375;48.540;9.268;2023-11-19T01:58:50;97197.31;;;8.98;100.00
4814;BME280;15375;48.540;9.268;2023-11-19T02:01:15;97187.75;;;8.86;100.00
4814;BME280;15375;48.540;9.268;2023-11-19T02:03:42;97190.53;;;8.83;100.00
4814;BME280;15375;48.540;9.268;2023-11-19T02:06:07;97206.97;;;9.03;100.00
4814;BME280;15375;48.540;9.268;2023-11-19T02:08:35;97181.91;;;8.88;100.00
4814;BME280;15375;48.540;9.268;2023-11-19T02:11:00;97195.00;;;8.96;100.00
4814;BME280;15375;48.540;9.268;2023-11-19T02:13:27;97171.72;;;8.95;100.00
4814;BME280;15375;48.540;9.268;2023-11-19T02:15:54;97176.69;;;9.01;100.00
4814;BME280;15375;48.540;9.268;2023-11-19T02:18:24;97203.19;;;9.23;100.00
4814;BME280;15375;48.540;9.268;2023-11-19T02:20:58;97200.03;;;9.25;100.00
4814;BME280;15375;48.540;9.268;2023-11-19T02:23:26;97209.69;;;9.29;100.00
4814;BME280;15375;48.540;9.268;2023-11-19T02:28:37;97193.34;;;9.29;100.00
4814;BME280;15375;48.540;9.268;2023-11-19T02:31:02;97152.97;;;9.01;100.00
4814;BME280;15375;48.540;9.268;2023-11-19T02:33:30;97189.03;;;9.32;100.00
4814;BME280;15375;48.540;9.268;2023-11-19T02:35:55;97187.81;;;9.36;100.00
4814;BME280;15375;48.540;9.268;2023-11-19T02:38:21;97163.13;;;9.24;100.00
4814;BME280;15375;48.540;9.268;2023-11-19T02:40:47;97158.44;;;9.24;100.00
4814;BME280;15375;48.540;9.268;2023-11-19T02:43:13;97179.19;;;9.41;100.00
4814;BME280;15375;48.540;9.268;2023-11-19T02:45:38;97168.00;;;9.36;100.00
4814;BME280;15375;48.540;9.268;2023-11-19T02:48:04;97167.19;;;9.39;100.00
4814;BME280;15375;48.540;9.268;2023-11-19T02:50:31;97156.63;;;9.41;100.00
4814;BME280;15375;48.540;9.268;2023-11-19T02:52:56;97181.44;;;9.46;100.00
4814;BME280;15375;48.540;9.268;2023-11-19T02:55:22;97183.69;;;9.51;100.00
4814;BME280;15375;48.540;9.268;2023-11-19T02:57:49;97190.25;;;9.54;100.00
4814;BME280;15375;48.540;9.268;2023-11-19T03:00:16;97198.31;;;9.61;100.00
4814;BME280;15375;48.540;9.268;2023-11-19T03:02:42;97185.56;;;9.54;100.00
4814;BME280;15375;48.540;9.268;2023-11-19T03:05:12;97189.38;;;9.60;100.00
4814;BME280;15375;48.540;9.268;2023-11-19T03:07:42;97182.84;;;9.54;100.00
4814;BME280;15375;48.540;9.268;2023-11-19T03:10:09;97187.78;;;9.63;100.00
4814;BME280;15375;48.540;9.268;2023-11-19T03:12:37;97179.25;;;9.61;100.00
4814;BME280;15375;48.540;9.268;2023-11-19T03:15:03;97164.25;;;9.49;100.00
4814;BME280;15375;48.540;9.268;2023-11-19T03:17:29;97199.31;;;9.71;100.00
4814;BME280;15375;48.540;9.268;2023-11-19T03:19:54;97176.69;;;9.50;100.00
4814;BME280;15375;48.540;9.268;2023-11-19T03:22:19;97197.84;;;9.66;100.00
4814;BME280;15375;48.540;9.268;2023-11-19T03:24:46;97198.25;;;9.64;100.00
4814;BME280;15375;48.540;9.268;2023-11-19T03:27:11;97178.94;;;9.55;100.00
4814;BME280;15375;48.540;9.268;2023-11-19T03:29:37;97193.88;;;9.71;100.00
4814;BME280;15375;48.540;9.268;2023-11-19T03:32:04;97173.06;;;9.57;100.00
4814;BME280;15375;48.540;9.268;2023-11-19T03:34:29;97180.03;;;9.61;100.00
4814;BME280;15375;48.540;9.268;2023-11-19T03:36:54;97196.16;;;9.72;100.00
4814;BME280;15375;48.540;9.268;2023-11-19T03:39:21;97168.41;;;9.57;100.00
4814;BME280;15375;48.540;9.268;2023-11-19T03:41:50;97190.72;;;9.72;100.00
4814;BME280;15375;48.540;9.268;2023-11-19T03:44:15;97211.47;;;9.89;100.00
4814;BME280;15375;48.540;9.268;2023-11-19T03:46:40;97180.56;;;9.76;100.00
4814;BME280;15375;48.540;9.268;2023-11-19T03:49:06;97166.28;;;9.69;100.00
4814;BME280;15375;48.540;9.268;2023-11-19T03:51:32;97207.50;;;9.94;100.00
4814;BME280;15375;48.540;9.268;2023-11-19T03:53:57;97169.97;;;9.82;100.00
4814;BME280;15375;48.540;9.268;2023-11-19T03:56:24;97162.25;;;9.77;100.00
4814;BME280;15375;48.540;9.268;2023-11-19T03:58:49;97187.44;;;9.84;100.00
4814;BME280;15375;48.540;9.268;2023-11-19T04:01:15;97164.22;;;9.76;100.00
4814;BME280;15375;48.540;9.268;2023-11-19T04:03:40;97190.03;;;9.91;100.00
4814;BME280;15375;48.540;9.268;2023-11-19T04:06:06;97176.09;;;9.86;100.00
4814;BME280;15375;48.540;9.268;2023-11-19T04:08:31;97193.44;;;9.95;100.00
4814;BME280;15375;48.540;9.268;2023-11-19T04:10:57;97195.00;;;9.96;100.00
4814;BME280;15375;48.540;9.268;2023-11-19T04:13:22;97182.72;;;9.85;100.00
4814;BME280;15375;48.540;9.268;2023-11-19T04:15:50;97186.09;;;9.92;100.00
4814;BME280;15375;48.540;9.268;2023-11-19T04:18:15;97181.84;;;9.91;100.00
4814;BME280;15375;48.540;9.268;2023-11-19T04:20:41;97161.38;;;10.03;100.00
4814;BME280;15375;48.540;9.268;2023-11-19T04:23:08;97156.03;;;9.99;100.00
4814;BME280;15375;48.540;9.268;2023-11-19T04:25:35;97171.59;;;9.99;100.00
4814;BME280;15375;48.540;9.268;2023-11-19T04:28:00;97160.88;;;9.88;100.00
4814;BME280;15375;48.540;9.268;2023-11-19T04:30:26;97207.50;;;10.17;100.00
4814;BME280;15375;48.540;9.268;2023-11-19T04:32:51;97188.97;;;10.05;100.00
4814;BME280;15375;48.540;9.268;2023-11-19T04:35:16;97165.78;;;9.97;100.00
4814;BME280;15375;48.540;9.268;2023-11-19T04:37:42;97193.94;;;10.10;100.00
4814;BME280;15375;48.540;9.268;2023-11-19T04:40:08;97202.53;;;10.12;100.00
4814;BME280;15375;48.540;9.268;2023-11-19T04:42:34;97180.41;;;10.06;100.00
4814;BME280;15375;48.540;9.268;2023-11-19T04:45:00;97183.53;;;10.05;100.00
4814;BME280;15375;48.540;9.268;2023-11-19T04:47:25;97171.34;;;9.90;100.00
4814;BME280;15375;48.540;9.268;2023-11-19T04:49:51;97209.56;;;10.09;100.00
4814;BME280;15375;48.540;9.268;2023-11-19T04:52:16;97196.75;;;10.06;100.00
4814;BME280;15375;48.540;9.268;2023-11-19T04:54:42;97225.53;;;10.31;100.00
4814;BME280;15375;48.540;9.268;2023-11-19T04:57:08;97207.84;;;10.19;100.00
4814;BME280;15375;48.540;9.268;2023-11-19T04:59:37;97151.78;;;9.95;100.00
4814;BME280;15375;48.540;9.268;2023-11-19T05:02:03;97211.84;;;10.34;100.00
4814;BME280;15375;48.540;9.268;2023-11-19T05:04:29;97197.16;;;10.28;100.00
4814;BME280;15375;48.540;9.268;2023-11-19T05:06:54;97203.59;;;10.38;100.00
4814;BME280;15375;48.540;9.268;2023-11-19T05:09:20;97201.44;;;10.29;100.00
4814;BME280;15375;48.540;9.268;2023-11-19T05:11:45;97217.97;;;10.38;100.00
4814;BME280;15375;48.540;9.268;2023-11-19T05:14:11;97213.66;;;10.41;100.00
4814;BME280;15375;48.540;9.268;2023-11-19T05:16:39;97217.94;;;10.42;100.00
4814;BME280;15375;48.540;9.268;2023-11-19T05:19:05;97204.28;;;10.42;100.00
4814;BME280;15375;48.540;9.268;2023-11-19T05:21:30;97211.22;;;10.46;100.00
4814;BME280;15375;48.540;9.268;2023-11-19T05:23:55;97194.84;;;10.46;100.00
4814;BME280;15375;48.540;9.268;2023-11-19T05:26:23;97220.84;;;10.70;100.00
4814;BME280;15375;48.540;9.268;2023-11-19T05:28:49;97192.25;;;10.59;100.00
4814;BME280;15375;48.540;9.268;2023-11-19T05:31:16;97179.91;;;10.54;100.00
4814;BME280;15375;48.540;9.268;2023-11-19T05:33:42;97205.59;;;10.73;100.00
4814;BME280;15375;48.540;9.268;2023-11-19T05:36:07;97193.66;;;10.67;100.00
4814;BME280;15375;48.540;9.268;2023-11-19T05:38:35;97150.50;;;10.42;100.00
4814;BME280;15375;48.540;9.268;2023-11-19T05:41:01;97189.38;;;10.66;100.00
4814;BME280;15375;48.540;9.268;2023-11-19T05:43:27;97171.63;;;10.58;100.00
4814;BME280;15375;48.540;9.268;2023-11-19T05:45:52;97203.31;;;10.71;100.00
4814;BME280;15375;48.540;9.268;2023-11-19T05:48:17;97188.56;;;10.69;100.00
4814;BME280;15375;48.540;9.268;2023-11-19T05:50:43;97209.28;;;10.82;100.00
4814;BME280;15375;48.540;9.268;2023-11-19T05:53:09;97201.59;;;10.77;100.00
4814;BME280;15375;48.540;9.268;2023-11-19T05:55:36;97187.84;;;10.84;100.00
4814;BME280;15375;48.540;9.268;2023-11-19T05:58:10;97193.19;;;10.88;100.00
4814;BME280;15375;48.540;9.268;2023-11-19T06:00:38;97205.03;;;10.81;100.00
4814;BME280;15375;48.540;9.268;2023-11-19T06:03:03;97197.88;;;10.87;100.00
4814;BME280;15375;48.540;9.268;2023-11-19T06:05:29;97181.00;;;10.76;100.00
4814;BME280;15375;48.540;9.268;2023-11-19T06:07:54;97194.47;;;10.83;100.00
4814;BME280;15375;48.540;9.268;2023-11-19T06:10:20;97205.66;;;10.89;100.00
4814;BME280;15375;48.540;9.268;2023-11-19T06:12:45;97206.63;;;10.99;100.00
4814;BME280;15375;48.540;9.268;2023-11-19T06:15:11;97212.75;;;11.03;100.00
4814;BME280;15375;48.540;9.268;2023-11-19T06:17:37;97204.22;;;11.01;100.00
4814;BME280;15375;48.540;9.268;2023-11-19T06:20:04;97191.38;;;11.01;100.00
4814;BME280;15375;48.540;9.268;2023-11-19T06:22:30;97200.66;;;11.04;100.00
4814;BME280;15375;48.540;9.268;2023-11-19T06:24:55;97164.81;;;10.85;100.00
4814;BME280;15375;48.540;9.268;2023-11-19T06:27:21;97173.69;;;10.89;100.00
4814;BME280;15375;48.540;9.268;2023-11-19T06:29:47;97196.94;;;11.14;100.00
4814;BME280;15375;48.540;9.268;2023-11-19T06:32:13;97168.25;;;10.89;100.00
4814;BME280;15375;48.540;9.268;2023-11-19T06:34:38;97191.88;;;10.96;100.00
4814;BME280;15375;48.540;9.268;2023-11-19T06:37:04;97234.50;;;11.26;100.00
4814;BME280;15375;48.540;9.268;2023-11-19T06:39:29;97224.16;;;11.17;100.00
4814;BME280;15375;48.540;9.268;2023-11-19T06:41:55;97206.91;;;11.04;100.00
4814;BME280;15375;48.540;9.268;2023-11-19T06:44:20;97228.91;;;11.13;100.00
4814;BME280;15375;48.540;9.268;2023-11-19T06:46:45;97207.06;;;10.97;100.00
4814;BME280;15375;48.540;9.268;2023-11-19T06:49:11;97200.06;;;10.96;100.00
4814;BME280;15375;48.540;9.268;2023-11-19T06:51:41;97217.72;;;11.08;100.00
4814;BME280;15375;48.540;9.268;2023-11-19T06:54:07;97223.28;;;11.04;100.00
4814;BME280;15375;48.540;9.268;2023-11-19T06:56:32;97250.53;;;11.24;100.00
4814;BME280;15375;48.540;9.268;2023-11-19T06:58:58;97246.63;;;11.25;100.00
4814;BME280;15375;48.540;9.268;2023-11-19T07:01:23;97258.22;;;11.29;100.00
4814;BME280;15375;48.540;9.268;2023-11-19T07:03:49;97227.63;;;11.18;100.00
4814;BME280;15375;48.540;9.268;2023-11-19T07:06:14;97239.88;;;11.29;100.00
4814;BME280;15375;48.540;9.268;2023-11-19T07:08:43;97243.63;;;11.35;100.00
4814;BME280;15375;48.540;9.268;2023-11-19T07:11:13;97219.88;;;11.16;100.00
4814;BME280;15375;48.540;9.268;2023-11-19T07:13:40;97225.28;;;11.20;100.00
4814;BME280;15375;48.540;9.268;2023-11-19T07:16:07;97228.00;;;11.20;100.00
4814;BME280;15375;48.540;9.268;2023-11-19T07:18:35;97195.28;;;11.00;100.00
4814;BME280;15375;48.540;9.268;2023-11-19T07:21:00;97220.84;;;11.26;100.00
4814;BME280;15375;48.540;9.268;2023-11-19T07:23:25;97211.19;;;11.21;100.00
4814;BME280;15375;48.540;9.268;2023-11-19T07:25:51;97244.22;;;11.43;100.00
4814;BME280;15375;48.540;9.268;2023-11-19T07:28:17;97245.78;;;11.44;100.00
4814;BME280;15375;48.540;9.268;2023-11-19T07:30:43;97231.97;;;11.35;100.00
4814;BME280;15375;48.540;9.268;2023-11-19T07:33:08;97240.81;;;11.39;100.00
4814;BME280;15375;48.540;9.268;2023-11-19T07:35:34;97238.09;;;11.39;100.00
4814;BME280;15375;48.540;9.268;2023-11-19T07:38:00;97188.13;;;11.06;100.00
4814;BME280;15375;48.540;9.268;2023-11-19T07:40:25;97257.56;;;11.41;100.00
4814;BME280;15375;48.540;9.268;2023-11-19T07:42:51;97207.34;;;11.19;100.00
4814;BME280;15375;48.540;9.268;2023-11-19T07:45:17;97244.34;;;11.39;100.00
4814;BME280;15375;48.540;9.268;2023-11-19T07:47:43;97233.47;;;11.36;100.00
4814;BME280;15375;48.540;9.268;2023-11-19T07:50:10;97203.34;;;11.23;100.00
4814;BME280;15375;48.540;9.268;2023-11-19T07:52:37;97256.31;;;11.62;100.00
4814;BME280;15375;48.540;9.268;2023-11-19T07:55:03;97255.53;;;11.61;100.00
4814;BME280;15375;48.540;9.268;2023-11-19T07:57:30;97252.28;;;11.66;100.00
4814;BME280;15375;48.540;9.268;2023-11-19T07:59:57;97243.69;;;11.68;100.00
4814;BME280;15375;48.540;9.268;2023-11-19T08:02:22;97263.69;;;11.81;100.00
4814;BME280;15375;48.540;9.268;2023-11-19T08:04:49;97261.38;;;11.79;100.00
4814;BME280;15375;48.540;9.268;2023-11-19T08:07:17;97260.53;;;11.82;100.00
4814;BME280;15375;48.540;9.268;2023-11-19T08:09:42;97279.66;;;11.98;100.00
4814;BME280;15375;48.540;9.268;2023-11-19T08:12:08;97258.41;;;11.90;100.00
4814;BME280;15375;48.540;9.268;2023-11-19T08:14:34;97223.19;;;11.76;100.00
4814;BME280;15375;48.540;9.268;2023-11-19T08:17:00;97254.72;;;11.96;100.00
4814;BME280;15375;48.540;9.268;2023-11-19T08:19:25;97272.81;;;12.06;100.00
4814;BME280;15375;48.540;9.268;2023-11-19T08:21:51;97265.72;;;12.09;100.00
4814;BME280;15375;48.540;9.268;2023-11-19T08:24:17;97245.00;;;11.95;100.00
4814;BME280;15375;48.540;9.268;2023-11-19T08:26:42;97225.88;;;11.95;100.00
4814;BME280;15375;48.540;9.268;2023-11-19T08:29:08;97197.34;;;11.80;100.00
4814;BME280;15375;48.540;9.268;2023-11-19T08:31:34;97234.22;;;12.04;100.00
4814;BME280;15375;48.540;9.268;2023-11-19T08:34:00;97230.69;;;12.04;100.00
4814;BME280;15375;48.540;9.268;2023-11-19T08:36:26;97249.31;;;12.09;100.00
4814;BME280;15375;48.540;9.268;2023-11-19T08:38:53;97235.06;;;12.01;100.00
4814;BME280;15375;48.540;9.268;2023-11-19T08:41:19;97265.78;;;12.22;100.00
4814;BME280;15375;48.540;9.268;2023-11-19T08:43:44;97247.19;;;12.16;100.00
4814;BME280;15375;48.540;9.268;2023-11-19T08:46:11;97263.47;;;12.36;100.00
4814;BME280;15375;48.540;9.268;2023-11-19T08:48:36;97246.31;;;12.36;100.00
4814;BME280;15375;48.540;9.268;2023-11-19T08:51:02;97267.94;;;12.59;100.00
4814;BME280;15375;48.540;9.268;2023-11-19T08:53:27;97249.88;;;12.61;100.00
4814;BME280;15375;48.540;9.268;2023-11-19T08:55:52;97265.69;;;12.70;100.00
4814;BME280;15375;48.540;9.268;2023-11-19T08:58:18;97265.50;;;12.77;100.00
4814;BME280;15375;48.540;9.268;2023-11-19T09:00:43;97260.88;;;12.74;100.00
4814;BME280;15375;48.540;9.268;2023-11-19T09:03:09;97258.63;;;12.85;100.00
4814;BME280;15375;48.540;9.268;2023-11-19T09:05:34;97241.31;;;12.75;100.00
4814;BME280;15375;48.540;9.268;2023-11-19T09:08:00;97253.47;;;12.87;100.00
4814;BME280;15375;48.540;9.268;2023-11-19T09:10:25;97250.94;;;12.80;100.00
4814;BME280;15375;48.540;9.268;2023-11-19T09:12:52;97241.84;;;12.70;100.00
4814;BME280;15375;48.540;9.268;2023-11-19T09:15:17;97265.66;;;12.86;100.00
4814;BME280;15375;48.540;9.268;2023-11-19T09:17:42;97238.97;;;12.74;100.00
4814;BME280;15375;48.540;9.268;2023-11-19T09:20:08;97253.81;;;12.89;100.00
4814;BME280;15375;48.540;9.268;2023-11-19T09:22:37;97250.53;;;12.94;100.00
4814;BME280;15375;48.540;9.268;2023-11-19T09:25:03;97253.28;;;12.94;100.00
4814;BME280;15375;48.540;9.268;2023-11-19T09:27:30;97247.63;;;13.01;100.00
4814;BME280;15375;48.540;9.268;2023-11-19T09:29:55;97270.69;;;13.16;100.00
4814;BME280;15375;48.540;9.268;2023-11-19T09:32:23;97273.06;;;13.27;100.00
4814;BME280;15375;48.540;9.268;2023-11-19T09:34:48;97266.19;;;13.22;100.00
4814;BME280;15375;48.540;9.268;2023-11-19T09:37:14;97263.75;;;13.24;100.00
4814;BME280;15375;48.540;9.268;2023-11-19T09:39:39;97234.56;;;13.05;100.00
4814;BME280;15375;48.540;9.268;2023-11-19T09:42:08;97291.06;;;13.28;100.00
4814;BME280;15375;48.540;9.268;2023-11-19T09:44:38;97292.69;;;13.25;100.00
4814;BME280;15375;48.540;9.268;2023-11-19T09:47:05;97288.41;;;13.24;100.00
4814;BME280;15375;48.540;9.268;2023-11-19T09:49:33;97271.00;;;13.18;100.00
4814;BME280;15375;48.540;9.268;2023-11-19T09:52:00;97280.66;;;13.23;100.00
4814;BME280;15375;48.540;9.268;2023-11-19T09:54:26;97250.22;;;13.05;100.00
4814;BME280;15375;48.540;9.268;2023-11-19T09:56:52;97281.19;;;13.18;100.00
4814;BME280;15375;48.540;9.268;2023-11-19T09:59:18;97258.50;;;13.17;100.00
4814;BME280;15375;48.540;9.268;2023-11-19T10:01:45;97248.44;;;13.27;100.00
4814;BME280;15375;48.540;9.268;2023-11-19T10:04:12;97266.75;;;13.42;100.00
4814;BME280;15375;48.540;9.268;2023-11-19T10:06:41;97258.75;;;13.48;100.00
4814;BME280;15375;48.540;9.268;2023-11-19T10:09:07;97240.88;;;13.31;100.00
4814;BME280;15375;48.540;9.268;2023-11-19T10:11:32;97255.38;;;13.44;100.00
4814;BME280;15375;48.540;9.268;2023-11-19T10:13:59;97232.13;;;13.36;100.00
4814;BME280;15375;48.540;9.268;2023-11-19T10:16:29;97249.00;;;13.47;100.00
4814;BME280;15375;48.540;9.268;2023-11-19T10:18:57;97216.88;;;13.48;100.00
4814;BME280;15375;48.540;9.268;2023-11-19T10:21:23;97240.34;;;13.74;100.00
4814;BME280;15375;48.540;9.268;2023-11-19T10:23:51;97256.06;;;14.07;100.00
4814;BME280;15375;48.540;9.268;2023-11-19T10:26:18;97273.06;;;14.15;100.00
4814;BME280;15375;48.540;9.268;2023-11-19T10:28:46;97258.69;;;14.11;100.00
4814;BME280;15375;48.540;9.268;2023-11-19T10:31:18;97250.13;;;14.22;100.00
4814;BME280;15375;48.540;9.268;2023-11-19T10:33:44;97248.47;;;14.24;100.00
4814;BME280;15375;48.540;9.268;2023-11-19T10:36:11;97244.06;;;14.27;100.00
4814;BME280;15375;48.540;9.268;2023-11-19T10:38:40;97214.88;;;13.86;100.00
4814;BME280;15375;48.540;9.268;2023-11-19T10:41:06;97204.78;;;13.83;100.00
4814;BME280;15375;48.540;9.268;2023-11-19T10:43:43;97232.88;;;13.87;100.00
4814;BME280;15375;48.540;9.268;2023-11-19T10:46:14;97255.97;;;13.98;100.00
4814;BME280;15375;48.540;9.268;2023-11-19T10:48:40;97235.84;;;14.27;100.00
4814;BME280;15375;48.540;9.268;2023-11-19T10:51:07;97244.31;;;14.32;100.00
4814;BME280;15375;48.540;9.268;2023-11-19T10:53:36;97233.13;;;14.14;100.00
4814;BME280;15375;48.540;9.268;2023-11-19T10:56:04;97224.69;;;14.08;100.00
4814;BME280;15375;48.540;9.268;2023-11-19T10:58:32;97219.78;;;14.03;100.00
4814;BME280;15375;48.540;9.268;2023-11-19T11:01:01;97215.34;;;14.19;100.00
4814;BME280;15375;48.540;9.268;2023-11-19T11:03:37;97226.81;;;14.39;100.00
4814;BME280;15375;48.540;9.268;2023-11-19T11:06:04;97216.63;;;14.27;100.00
4814;BME280;15375;48.540;9.268;2023-11-19T11:08:30;97182.22;;;14.13;100.00
4814;BME280;15375;48.540;9.268;2023-11-19T11:10:56;97217.97;;;14.35;100.00
4814;BME280;15375;48.540;9.268;2023-11-19T11:13:26;97231.22;;;14.36;100.00
4814;BME280;15375;48.540;9.268;2023-11-19T11:15:56;97225.75;;;14.36;100.00
4814;BME280;15375;48.540;9.268;2023-11-19T11:18:25;97209.75;;;14.22;100.00
4814;BME280;15375;48.540;9.268;2023-11-19T11:20:54;97220.38;;;14.33;100.00
4814;BME280;15375;48.540;9.268;2023-11-19T11:29:03;97191.03;;;14.42;100.00
4814;BME280;15375;48.540;9.268;2023-11-19T11:39:28;97178.25;;;14.92;100.00
4814;BME280;15375;48.540;9.268;2023-11-19T11:45:08;97211.78;;;16.06;100.00
4814;BME280;15375;48.540;9.268;2023-11-19T11:50:16;97178.31;;;15.80;100.00
4814;BME280;15375;48.540;9.268;2023-11-19T11:53:17;97217.28;;;15.88;100.00
4814;BME280;15375;48.540;9.268;2023-11-19T11:58:25;97201.66;;;15.76;100.00
4814;BME280;15375;48.540;9.268;2023-11-19T12:00:51;97207.59;;;15.65;100.00
4814;BME280;15375;48.540;9.268;2023-11-19T12:03:20;97176.16;;;15.36;100.00
4814;BME280;15375;48.540;9.268;2023-11-19T12:05:47;97214.66;;;15.36;100.00
4814;BME280;15375;48.540;9.268;2023-11-19T12:08:14;97215.56;;;15.42;100.00
4814;BME280;15375;48.540;9.268;2023-11-19T12:10:50;97217.16;;;15.52;100.00
4814;BME280;15375;48.540;9.268;2023-11-19T12:13:17;97215.75;;;15.16;100.00
4814;BME280;15375;48.540;9.268;2023-11-19T12:18:31;97162.47;;;14.83;100.00
4814;BME280;15375;48.540;9.268;2023-11-19T12:20:57;97181.84;;;14.80;100.00
4814;BME280;15375;48.540;9.268;2023-11-19T12:23:28;97174.19;;;14.75;100.00
4814;BME280;15375;48.540;9.268;2023-11-19T12:25:54;97208.41;;;15.13;100.00
4814;BME280;15375;48.540;9.268;2023-11-19T12:28:20;97200.63;;;15.12;100.00
4814;BME280;15375;48.540;9.268;2023-11-19T12:30:45;97191.53;;;15.24;100.00
4814;BME280;15375;48.540;9.268;2023-11-19T12:33:12;97192.75;;;15.23;100.00
4814;BME280;15375;48.540;9.268;2023-11-19T12:38:07;97150.97;;;15.37;100.00
4814;BME280;15375;48.540;9.268;2023-11-19T12:40:33;97155.53;;;15.31;100.00
4814;BME280;15375;48.540;9.268;2023-11-19T12:42:58;97129.59;;;14.92;100.00
4814;BME280;15375;48.540;9.268;2023-11-19T12:45:34;97159.19;;;15.28;100.00
4814;BME280;15375;48.540;9.268;2023-11-19T12:48:07;97164.66;;;15.59;100.00
4814;BME280;15375;48.540;9.268;2023-11-19T12:50:54;97181.59;;;15.48;100.00
4814;BME280;15375;48.540;9.268;2023-11-19T12:53:23;97157.16;;;15.59;100.00
4814;BME280;15375;48.540;9.268;2023-11-19T12:55:50;97139.09;;;15.40;100.00
4814;BME280;15375;48.540;9.268;2023-11-19T12:58:35;97158.13;;;15.65;100.00
4814;BME280;15375;48.540;9.268;2023-11-19T13:01:06;97146.78;;;15.54;100.00
4814;BME280;15375;48.540;9.268;2023-11-19T13:03:33;97166.97;;;15.69;100.00
4814;BME280;15375;48.540;9.268;2023-11-19T13:06:17;97157.47;;;15.52;100.00
4814;BME280;15375;48.540;9.268;2023-11-19T13:08:47;97120.72;;;15.28;100.00
4814;BME280;15375;48.540;9.268;2023-11-19T13:11:34;97118.84;;;15.16;100.00
4814;BME280;15375;48.540;9.268;2023-11-19T13:14:05;97133.44;;;15.44;100.00
4814;BME280;15375;48.540;9.268;2023-11-19T13:16:31;97141.88;;;15.58;100.00
4814;BME280;15375;48.540;9.268;2023-11-19T13:18:57;97150.66;;;15.84;100.00
4814;BME280;15375;48.540;9.268;2023-11-19T13:21:23;97149.28;;;15.88;99.56
4814;BME280;15375;48.540;9.268;2023-11-19T13:23:49;97095.63;;;15.57;98.88
4814;BME280;15375;48.540;9.268;2023-11-19T13:26:15;97080.34;;;15.56;97.37
4814;BME280;15375;48.540;9.268;2023-11-19T13:28:40;97082.50;;;15.70;97.42
4814;BME280;15375;48.540;9.268;2023-11-19T13:31:06;97132.59;;;15.74;100.00
4814;BME280;15375;48.540;9.268;2023-11-19T13:33:31;97097.50;;;15.29;99.65